עמוד ראשי
METAR-TAF:

METAR-TAF

שדות תעופה :

טרוחיו, פרו

קו רוחב: 08-06S, קו אורך: 079-02W, גובה: 26מטר

תצפית מזג אוויר נוכחית

הדו"ח נערך לפני 5דקות, בשעה 12:00 UTC
רוח 3קשר מכיוון דרום
טמפרטורת 19 צלסיוס
לחות 88%
לחץ 1011 hPa
ראות: 2000מטר
קרעי ערפל

METAR: SPRU 121200Z 19003KT 6000 2000S BCFG NSC 19/17 Q1011 RMK TN19.7 PP000

זמן: 07:05 (12:05 UTC)

תחזית

הדו"ח נערך לפני 1 שעות ו 0דקות, בשעה 11:05 UTC
תחזית בתוקף מ 12 ב 12 UTC עד 13 ב 12 UTC
רוח 8קשר מכיוון דרום/דרום-מזרח
ראות: 8000מטר
זמנית מ -
12 ב 12 UTC עד 12 ב 14 UTC
ראות: 3000מטר
אד,

TAF: SPRU 121105Z 1212/1312 16008KT 8000 NSC TX23/1219Z TN20/1311Z TEMPO 1212/1214 3000 BR

תצפיות ותחזיות מזג אוויר לגבי יותר מ- 4,000 שדות תעופה ברחבי העולם. דוחות METAR ו- TAF.

התחנות הזמינות מסומנות בנקודות צהובות ואדומות על גבי המפה.

העבר את העכבר לנקודה הצבעונית על מנת לראות את שם התחנה.

לאחר מכן, לחץ כדי לראות את תוכן ואת תחזיות מזג האוויר.

כדי לשנות את המפה: לחץ על הכפתורים הירוקים עם הפלוס השחור כדי להתקרב; על הכפתור הירוק עם המקף כדי להתרחק; או בחיצים הירוקים למפות סמוכות.


METAR-TAF: